Angola, Indiana
Current Conditions -  °F | °C
As of 1:35 PM on Friday 28 Nov 2014 (Local Time) from KANQ Reporting Station
Broken Clouds Broken Clouds  
Wind Chill: 13°   Ceiling: 1800
Heat Index: 23°   Visibility: 10mi
Dew Point: 18°   Wind: 9mph
Humidity: 80%   Direction: 180°S
Pressure: 30.19"   Gusts: NA
Location:  41.63°N, 85°W
Report Text: KANQ 281835Z AUTO 18008KT 10SM BKN018 M05/M08 A3019 RMK
Loading
Personal Weather Stations






























Interactive Weather Map New forecast layout! Learn more

10-Day Weather Forecast

Advertisements
Track Severe Weather on mobile